sensor_id;sensor_type;location;lat;lon;timestamp;P1;durP1;ratioP1;P2;durP2;ratioP2
69414;SDS011;56608;43.530;-5.652;2022-11-15T00:00:30;11.88;;;5.65;;
69414;SDS011;56608;43.530;-5.652;2022-11-15T00:01:32;9.85;;;4.90;;
69414;SDS011;56608;43.530;-5.652;2022-11-15T00:02:37;12.82;;;5.40;;
69414;SDS011;56608;43.530;-5.652;2022-11-15T00:03:39;10.50;;;4.80;;
69414;SDS011;56608;43.530;-5.652;2022-11-15T00:04:39;10.37;;;5.13;;
69414;SDS011;56608;43.530;-5.652;2022-11-15T00:05:42;10.80;;;4.93;;
69414;SDS011;56608;43.530;-5.652;2022-11-15T00:07:42;9.50;;;4.60;;
69414;SDS011;56608;43.530;-5.652;2022-11-15T00:08:46;9.10;;;4.90;;
69414;SDS011;56608;43.530;-5.652;2022-11-15T00:09:48;10.48;;;4.68;;
69414;SDS011;56608;43.530;-5.652;2022-11-15T00:10:58;8.95;;;4.75;;
69414;SDS011;56608;43.530;-5.652;2022-11-15T00:12:00;11.15;;;5.05;;
69414;SDS011;56608;43.530;-5.652;2022-11-15T00:13:05;9.50;;;5.00;;
69414;SDS011;56608;43.530;-5.652;2022-11-15T00:14:08;9.57;;;4.85;;
69414;SDS011;56608;43.530;-5.652;2022-11-15T00:15:09;8.35;;;4.72;;
69414;SDS011;56608;43.530;-5.652;2022-11-15T00:16:10;10.40;;;5.60;;
69414;SDS011;56608;43.530;-5.652;2022-11-15T00:17:12;8.25;;;4.60;;
69414;SDS011;56608;43.530;-5.652;2022-11-15T00:18:15;9.43;;;4.30;;
69414;SDS011;56608;43.530;-5.652;2022-11-15T00:20:18;7.40;;;3.90;;
69414;SDS011;56608;43.530;-5.652;2022-11-15T00:21:19;8.10;;;4.35;;
69414;SDS011;56608;43.530;-5.652;2022-11-15T00:22:21;10.20;;;4.00;;
69414;SDS011;56608;43.530;-5.652;2022-11-15T00:23:23;7.10;;;4.18;;
69414;SDS011;56608;43.530;-5.652;2022-11-15T00:24:24;7.12;;;4.25;;
69414;SDS011;56608;43.530;-5.652;2022-11-15T00:25:25;8.32;;;4.30;;
69414;SDS011;56608;43.530;-5.652;2022-11-15T00:26:29;7.82;;;4.30;;
69414;SDS011;56608;43.530;-5.652;2022-11-15T00:27:33;8.63;;;4.07;;
69414;SDS011;56608;43.530;-5.652;2022-11-15T00:28:34;7.50;;;4.28;;
69414;SDS011;56608;43.530;-5.652;2022-11-15T00:29:35;11.07;;;4.47;;
69414;SDS011;56608;43.530;-5.652;2022-11-15T00:30:39;10.00;;;4.65;;
69414;SDS011;56608;43.530;-5.652;2022-11-15T00:31:40;8.10;;;4.80;;
69414;SDS011;56608;43.530;-5.652;2022-11-15T00:32:41;7.90;;;4.60;;
69414;SDS011;56608;43.530;-5.652;2022-11-15T00:33:43;10.77;;;4.82;;
69414;SDS011;56608;43.530;-5.652;2022-11-15T00:34:46;10.48;;;5.03;;
69414;SDS011;56608;43.530;-5.652;2022-11-15T00:35:49;13.03;;;4.63;;
69414;SDS011;56608;43.530;-5.652;2022-11-15T00:36:50;10.30;;;5.50;;
69414;SDS011;56608;43.530;-5.652;2022-11-15T00:37:52;7.40;;;4.50;;
69414;SDS011;56608;43.530;-5.652;2022-11-15T00:38:54;10.23;;;5.00;;
69414;SDS011;56608;43.530;-5.652;2022-11-15T00:39:55;7.65;;;4.90;;
69414;SDS011;56608;43.530;-5.652;2022-11-15T00:40:56;8.48;;;4.60;;
69414;SDS011;56608;43.530;-5.652;2022-11-15T00:41:58;10.55;;;4.90;;
69414;SDS011;56608;43.530;-5.652;2022-11-15T00:42:59;13.85;;;5.37;;
69414;SDS011;56608;43.530;-5.652;2022-11-15T00:44:03;13.10;;;5.30;;
69414;SDS011;56608;43.530;-5.652;2022-11-15T00:45:04;10.43;;;5.40;;
69414;SDS011;56608;43.530;-5.652;2022-11-15T00:46:06;10.85;;;5.30;;
69414;SDS011;56608;43.530;-5.652;2022-11-15T00:47:09;8.00;;;4.50;;
69414;SDS011;56608;43.530;-5.652;2022-11-15T00:48:10;11.35;;;4.25;;
69414;SDS011;56608;43.530;-5.652;2022-11-15T00:49:12;9.63;;;4.62;;
69414;SDS011;56608;43.530;-5.652;2022-11-15T00:50:15;9.98;;;4.60;;
69414;SDS011;56608;43.530;-5.652;2022-11-15T00:51:17;7.28;;;3.80;;
69414;SDS011;56608;43.530;-5.652;2022-11-15T00:52:19;7.20;;;3.95;;
69414;SDS011;56608;43.530;-5.652;2022-11-15T00:53:20;7.57;;;4.28;;
69414;SDS011;56608;43.530;-5.652;2022-11-15T00:54:22;9.25;;;3.87;;
69414;SDS011;56608;43.530;-5.652;2022-11-15T00:55:23;6.60;;;3.70;;
69414;SDS011;56608;43.530;-5.652;2022-11-15T00:56:24;8.70;;;4.30;;
69414;SDS011;56608;43.530;-5.652;2022-11-15T00:57:26;7.87;;;4.18;;
69414;SDS011;56608;43.530;-5.652;2022-11-15T00:58:27;8.35;;;4.75;;
69414;SDS011;56608;43.530;-5.652;2022-11-15T00:59:29;7.90;;;4.03;;
69414;SDS011;56608;43.530;-5.652;2022-11-15T01:00:30;9.20;;;4.10;;
69414;SDS011;56608;43.530;-5.652;2022-11-15T01:01:34;6.97;;;3.97;;
69414;SDS011;56608;43.530;-5.652;2022-11-15T01:02:34;11.45;;;4.40;;
69414;SDS011;56608;43.530;-5.652;2022-11-15T01:03:37;10.40;;;4.20;;
69414;SDS011;56608;43.530;-5.652;2022-11-15T01:04:39;6.47;;;3.90;;
69414;SDS011;56608;43.530;-5.652;2022-11-15T01:05:41;6.97;;;3.67;;
69414;SDS011;56608;43.530;-5.652;2022-11-15T01:06:41;7.40;;;3.60;;
69414;SDS011;56608;43.530;-5.652;2022-11-15T01:07:45;15.00;;;3.67;;
69414;SDS011;56608;43.530;-5.652;2022-11-15T01:08:46;6.45;;;3.50;;
69414;SDS011;56608;43.530;-5.652;2022-11-15T01:09:47;5.37;;;2.97;;
69414;SDS011;56608;43.530;-5.652;2022-11-15T01:10:49;7.80;;;3.53;;
69414;SDS011;56608;43.530;-5.652;2022-11-15T01:11:50;8.55;;;3.67;;
69414;SDS011;56608;43.530;-5.652;2022-11-15T01:12:54;5.57;;;3.30;;
69414;SDS011;56608;43.530;-5.652;2022-11-15T01:13:55;8.60;;;3.10;;
69414;SDS011;56608;43.530;-5.652;2022-11-15T01:14:56;7.70;;;3.30;;
69414;SDS011;56608;43.530;-5.652;2022-11-15T01:15:58;8.50;;;3.30;;
69414;SDS011;56608;43.530;-5.652;2022-11-15T01:17:00;6.10;;;3.07;;
69414;SDS011;56608;43.530;-5.652;2022-11-15T01:18:02;6.53;;;3.58;;
69414;SDS011;56608;43.530;-5.652;2022-11-15T01:19:05;5.00;;;3.05;;
69414;SDS011;56608;43.530;-5.652;2022-11-15T01:20:07;8.30;;;3.60;;
69414;SDS011;56608;43.530;-5.652;2022-11-15T01:21:10;5.62;;;3.40;;
69414;SDS011;56608;43.530;-5.652;2022-11-15T01:22:13;6.77;;;3.30;;
69414;SDS011;56608;43.530;-5.652;2022-11-15T01:23:15;10.52;;;3.40;;
69414;SDS011;56608;43.530;-5.652;2022-11-15T01:24:17;7.87;;;3.60;;
69414;SDS011;56608;43.530;-5.652;2022-11-15T01:25:18;5.90;;;3.80;;
69414;SDS011;56608;43.530;-5.652;2022-11-15T01:26:20;9.27;;;4.40;;
69414;SDS011;56608;43.530;-5.652;2022-11-15T01:27:23;8.33;;;3.77;;
69414;SDS011;56608;43.530;-5.652;2022-11-15T01:28:25;6.57;;;3.53;;
69414;SDS011;56608;43.530;-5.652;2022-11-15T01:29:25;8.43;;;3.70;;
69414;SDS011;56608;43.530;-5.652;2022-11-15T01:30:27;7.25;;;3.87;;
69414;SDS011;56608;43.530;-5.652;2022-11-15T01:31:29;7.30;;;3.50;;
69414;SDS011;56608;43.530;-5.652;2022-11-15T01:32:30;10.23;;;4.15;;
69414;SDS011;56608;43.530;-5.652;2022-11-15T01:33:33;10.57;;;3.97;;
69414;SDS011;56608;43.530;-5.652;2022-11-15T01:34:38;7.97;;;3.70;;
69414;SDS011;56608;43.530;-5.652;2022-11-15T01:35:38;8.00;;;4.20;;
69414;SDS011;56608;43.530;-5.652;2022-11-15T01:36:41;7.47;;;3.97;;
69414;SDS011;56608;43.530;-5.652;2022-11-15T01:37:42;8.90;;;3.72;;
69414;SDS011;56608;43.530;-5.652;2022-11-15T01:38:44;8.45;;;4.00;;
69414;SDS011;56608;43.530;-5.652;2022-11-15T01:39:46;6.65;;;3.62;;
69414;SDS011;56608;43.530;-5.652;2022-11-15T01:40:49;6.10;;;3.28;;
69414;SDS011;56608;43.530;-5.652;2022-11-15T01:41:51;6.97;;;3.58;;
69414;SDS011;56608;43.530;-5.652;2022-11-15T01:42:52;7.60;;;3.70;;
69414;SDS011;56608;43.530;-5.652;2022-11-15T01:44:25;8.25;;;3.70;;
69414;SDS011;56608;43.530;-5.652;2022-11-15T01:45:36;9.57;;;3.47;;
69414;SDS011;56608;43.530;-5.652;2022-11-15T01:46:37;6.28;;;3.80;;
69414;SDS011;56608;43.530;-5.652;2022-11-15T01:47:40;5.68;;;3.22;;
69414;SDS011;56608;43.530;-5.652;2022-11-15T01:48:45;6.53;;;3.40;;
69414;SDS011;56608;43.530;-5.652;2022-11-15T01:49:52;8.10;;;3.72;;
69414;SDS011;56608;43.530;-5.652;2022-11-15T01:51:06;7.78;;;3.60;;
69414;SDS011;56608;43.530;-5.652;2022-11-15T01:52:13;5.40;;;3.20;;
69414;SDS011;56608;43.530;-5.652;2022-11-15T01:53:19;6.97;;;3.17;;
69414;SDS011;56608;43.530;-5.652;2022-11-15T01:54:23;6.05;;;3.17;;
69414;SDS011;56608;43.530;-5.652;2022-11-15T01:55:26;5.65;;;3.40;;
69414;SDS011;56608;43.530;-5.652;2022-11-15T01:56:33;4.68;;;2.90;;
69414;SDS011;56608;43.530;-5.652;2022-11-15T01:57:38;6.65;;;3.60;;
69414;SDS011;56608;43.530;-5.652;2022-11-15T01:58:43;8.50;;;3.40;;
69414;SDS011;56608;43.530;-5.652;2022-11-15T01:59:46;7.75;;;3.72;;
69414;SDS011;56608;43.530;-5.652;2022-11-15T02:00:48;6.18;;;2.80;;
69414;SDS011;56608;43.530;-5.652;2022-11-15T02:01:51;6.20;;;2.80;;
69414;SDS011;56608;43.530;-5.652;2022-11-15T02:02:54;6.25;;;2.95;;
69414;SDS011;56608;43.530;-5.652;2022-11-15T02:03:56;4.45;;;2.70;;
69414;SDS011;56608;43.530;-5.652;2022-11-15T02:05:00;5.37;;;3.08;;
69414;SDS011;56608;43.530;-5.652;2022-11-15T02:06:02;7.45;;;3.12;;
69414;SDS011;56608;43.530;-5.652;2022-11-15T02:07:05;5.72;;;3.17;;
69414;SDS011;56608;43.530;-5.652;2022-11-15T02:08:09;4.75;;;3.00;;
69414;SDS011;56608;43.530;-5.652;2022-11-15T02:09:20;5.12;;;2.90;;
69414;SDS011;56608;43.530;-5.652;2022-11-15T02:10:22;4.60;;;3.00;;
69414;SDS011;56608;43.530;-5.652;2022-11-15T02:11:25;6.22;;;2.83;;
69414;SDS011;56608;43.530;-5.652;2022-11-15T02:12:27;6.45;;;3.30;;
69414;SDS011;56608;43.530;-5.652;2022-11-15T02:14:31;6.00;;;2.90;;
69414;SDS011;56608;43.530;-5.652;2022-11-15T02:15:35;5.43;;;3.00;;
69414;SDS011;56608;43.530;-5.652;2022-11-15T02:30:42;9.07;;;3.20;;
69414;SDS011;56608;43.530;-5.652;2022-11-15T02:31:53;7.00;;;3.40;;
69414;SDS011;56608;43.530;-5.652;2022-11-15T02:41:15;6.35;;;3.25;;
69414;SDS011;56608;43.530;-5.652;2022-11-15T02:42:26;5.57;;;3.08;;
69414;SDS011;56608;43.530;-5.652;2022-11-15T02:43:49;5.45;;;3.00;;
69414;SDS011;56608;43.530;-5.652;2022-11-15T02:44:58;6.00;;;3.00;;
69414;SDS011;56608;43.530;-5.652;2022-11-15T02:47:16;7.78;;;2.85;;
69414;SDS011;56608;43.530;-5.652;2022-11-15T02:48:18;4.45;;;2.53;;
69414;SDS011;56608;43.530;-5.652;2022-11-15T02:49:22;5.30;;;2.45;;
69414;SDS011;56608;43.530;-5.652;2022-11-15T02:50:28;6.25;;;2.85;;
69414;SDS011;56608;43.530;-5.652;2022-11-15T02:51:32;4.90;;;2.70;;
69414;SDS011;56608;43.530;-5.652;2022-11-15T02:52:34;5.00;;;2.50;;
69414;SDS011;56608;43.530;-5.652;2022-11-15T02:53:35;4.55;;;2.95;;
69414;SDS011;56608;43.530;-5.652;2022-11-15T02:54:37;4.90;;;2.85;;
69414;SDS011;56608;43.530;-5.652;2022-11-15T02:55:40;6.15;;;2.80;;
69414;SDS011;56608;43.530;-5.652;2022-11-15T02:56:47;6.70;;;2.80;;
69414;SDS011;56608;43.530;-5.652;2022-11-15T03:00:47;6.57;;;2.50;;
69414;SDS011;56608;43.530;-5.652;2022-11-15T03:04:30;4.85;;;2.83;;
69414;SDS011;56608;43.530;-5.652;2022-11-15T03:05:53;5.97;;;2.60;;
69414;SDS011;56608;43.530;-5.652;2022-11-15T03:07:37;4.20;;;2.50;;
69414;SDS011;56608;43.530;-5.652;2022-11-15T03:10:00;5.53;;;2.78;;
69414;SDS011;56608;43.530;-5.652;2022-11-15T03:11:23;5.72;;;2.90;;
69414;SDS011;56608;43.530;-5.652;2022-11-15T03:12:28;8.25;;;3.17;;
69414;SDS011;56608;43.530;-5.652;2022-11-15T03:15:05;6.18;;;3.05;;
69414;SDS011;56608;43.530;-5.652;2022-11-15T03:16:12;6.35;;;2.90;;
69414;SDS011;56608;43.530;-5.652;2022-11-15T03:18:29;7.12;;;2.92;;
69414;SDS011;56608;43.530;-5.652;2022-11-15T03:19:50;6.80;;;2.90;;
69414;SDS011;56608;43.530;-5.652;2022-11-15T03:20:54;6.03;;;3.50;;
69414;SDS011;56608;43.530;-5.652;2022-11-15T03:21:59;6.22;;;3.25;;
69414;SDS011;56608;43.530;-5.652;2022-11-15T03:23:05;8.73;;;3.15;;
69414;SDS011;56608;43.530;-5.652;2022-11-15T03:24:09;8.55;;;3.10;;
69414;SDS011;56608;43.530;-5.652;2022-11-15T03:25:15;5.35;;;3.00;;
69414;SDS011;56608;43.530;-5.652;2022-11-15T03:26:21;4.32;;;2.70;;
69414;SDS011;56608;43.530;-5.652;2022-11-15T03:27:27;6.75;;;2.92;;
69414;SDS011;56608;43.530;-5.652;2022-11-15T03:28:36;6.47;;;3.00;;
69414;SDS011;56608;43.530;-5.652;2022-11-15T03:29:43;6.25;;;3.15;;
69414;SDS011;56608;43.530;-5.652;2022-11-15T03:30:50;4.80;;;2.92;;
69414;SDS011;56608;43.530;-5.652;2022-11-15T03:31:56;7.18;;;3.60;;
69414;SDS011;56608;43.530;-5.652;2022-11-15T03:33:01;6.87;;;3.00;;
69414;SDS011;56608;43.530;-5.652;2022-11-15T03:34:05;7.43;;;3.12;;
69414;SDS011;56608;43.530;-5.652;2022-11-15T03:35:12;6.37;;;3.10;;
69414;SDS011;56608;43.530;-5.652;2022-11-15T03:36:16;5.20;;;2.93;;
69414;SDS011;56608;43.530;-5.652;2022-11-15T03:37:20;4.33;;;3.00;;
69414;SDS011;56608;43.530;-5.652;2022-11-15T03:38:26;6.57;;;3.47;;
69414;SDS011;56608;43.530;-5.652;2022-11-15T03:39:31;7.95;;;3.30;;
69414;SDS011;56608;43.530;-5.652;2022-11-15T03:41:45;5.97;;;3.08;;
69414;SDS011;56608;43.530;-5.652;2022-11-15T03:44:04;6.45;;;3.58;;
69414;SDS011;56608;43.530;-5.652;2022-11-15T03:45:27;5.85;;;3.00;;
69414;SDS011;56608;43.530;-5.652;2022-11-15T03:46:38;5.87;;;3.03;;
69414;SDS011;56608;43.530;-5.652;2022-11-15T03:50:28;8.48;;;3.00;;
69414;SDS011;56608;43.530;-5.652;2022-11-15T03:51:32;6.62;;;2.97;;
69414;SDS011;56608;43.530;-5.652;2022-11-15T03:52:34;5.62;;;3.28;;
69414;SDS011;56608;43.530;-5.652;2022-11-15T03:53:36;6.97;;;3.45;;
69414;SDS011;56608;43.530;-5.652;2022-11-15T03:54:47;8.70;;;3.40;;
69414;SDS011;56608;43.530;-5.652;2022-11-15T03:55:49;10.02;;;3.55;;
69414;SDS011;56608;43.530;-5.652;2022-11-15T03:56:52;9.65;;;3.00;;
69414;SDS011;56608;43.530;-5.652;2022-11-15T03:57:54;4.40;;;2.75;;
69414;SDS011;56608;43.530;-5.652;2022-11-15T03:58:58;7.28;;;3.87;;
69414;SDS011;56608;43.530;-5.652;2022-11-15T04:00:00;8.00;;;3.67;;
69414;SDS011;56608;43.530;-5.652;2022-11-15T04:01:01;5.55;;;3.20;;
69414;SDS011;56608;43.530;-5.652;2022-11-15T04:02:05;7.28;;;3.12;;
69414;SDS011;56608;43.530;-5.652;2022-11-15T04:03:06;8.60;;;3.60;;
69414;SDS011;56608;43.530;-5.652;2022-11-15T04:04:08;7.72;;;3.12;;
69414;SDS011;56608;43.530;-5.652;2022-11-15T04:05:10;6.22;;;3.50;;
69414;SDS011;56608;43.530;-5.652;2022-11-15T04:06:14;6.00;;;3.42;;
69414;SDS011;56608;43.530;-5.652;2022-11-15T04:07:15;6.37;;;3.67;;
69414;SDS011;56608;43.530;-5.652;2022-11-15T04:08:17;7.20;;;3.50;;
69414;SDS011;56608;43.530;-5.652;2022-11-15T04:09:18;6.47;;;3.30;;
69414;SDS011;56608;43.530;-5.652;2022-11-15T04:10:19;9.10;;;3.40;;
69414;SDS011;56608;43.530;-5.652;2022-11-15T04:11:21;6.30;;;3.30;;
69414;SDS011;56608;43.530;-5.652;2022-11-15T04:12:22;7.50;;;3.40;;
69414;SDS011;56608;43.530;-5.652;2022-11-15T04:13:33;6.30;;;3.40;;
69414;SDS011;56608;43.530;-5.652;2022-11-15T04:14:34;6.53;;;3.07;;
69414;SDS011;56608;43.530;-5.652;2022-11-15T04:15:38;5.95;;;3.00;;
69414;SDS011;56608;43.530;-5.652;2022-11-15T04:16:39;7.93;;;3.33;;
69414;SDS011;56608;43.530;-5.652;2022-11-15T04:17:48;8.55;;;3.30;;
69414;SDS011;56608;43.530;-5.652;2022-11-15T04:18:51;10.38;;;3.50;;
69414;SDS011;56608;43.530;-5.652;2022-11-15T04:21:34;7.07;;;3.12;;
69414;SDS011;56608;43.530;-5.652;2022-11-15T04:22:56;3.95;;;2.40;;
69414;SDS011;56608;43.530;-5.652;2022-11-15T04:24:16;5.23;;;2.10;;
69414;SDS011;56608;43.530;-5.652;2022-11-15T04:25:18;6.90;;;2.80;;
69414;SDS011;56608;43.530;-5.652;2022-11-15T04:26:20;6.60;;;3.20;;
69414;SDS011;56608;43.530;-5.652;2022-11-15T04:27:23;6.95;;;3.15;;
69414;SDS011;56608;43.530;-5.652;2022-11-15T04:28:24;7.82;;;3.60;;
69414;SDS011;56608;43.530;-5.652;2022-11-15T04:29:26;8.77;;;3.30;;
69414;SDS011;56608;43.530;-5.652;2022-11-15T04:30:36;5.93;;;3.00;;
69414;SDS011;56608;43.530;-5.652;2022-11-15T04:32:39;3.03;;;1.27;;
69414;SDS011;56608;43.530;-5.652;2022-11-15T04:33:40;2.60;;;1.50;;
69414;SDS011;56608;43.530;-5.652;2022-11-15T04:34:42;3.78;;;1.52;;
69414;SDS011;56608;43.530;-5.652;2022-11-15T04:35:44;5.15;;;2.25;;
69414;SDS011;56608;43.530;-5.652;2022-11-15T04:37:05;5.67;;;1.47;;
69414;SDS011;56608;43.530;-5.652;2022-11-15T04:38:12;3.05;;;1.35;;
69414;SDS011;56608;43.530;-5.652;2022-11-15T04:39:14;3.30;;;1.20;;
69414;SDS011;56608;43.530;-5.652;2022-11-15T04:40:15;3.58;;;1.25;;
69414;SDS011;56608;43.530;-5.652;2022-11-15T04:41:17;4.50;;;1.40;;
69414;SDS011;56608;43.530;-5.652;2022-11-15T04:42:18;1.85;;;0.95;;
69414;SDS011;56608;43.530;-5.652;2022-11-15T04:43:20;3.80;;;1.40;;
69414;SDS011;56608;43.530;-5.652;2022-11-15T04:44:21;2.03;;;1.45;;
69414;SDS011;56608;43.530;-5.652;2022-11-15T04:45:22;1.90;;;0.70;;
69414;SDS011;56608;43.530;-5.652;2022-11-15T04:46:24;4.40;;;0.88;;
69414;SDS011;56608;43.530;-5.652;2022-11-15T04:47:26;1.90;;;0.90;;
69414;SDS011;56608;43.530;-5.652;2022-11-15T04:48:30;1.60;;;0.90;;
69414;SDS011;56608;43.530;-5.652;2022-11-15T04:49:31;1.87;;;0.85;;
69414;SDS011;56608;43.530;-5.652;2022-11-15T04:50:33;1.85;;;1.00;;
69414;SDS011;56608;43.530;-5.652;2022-11-15T04:51:34;0.90;;;0.60;;
69414;SDS011;56608;43.530;-5.652;2022-11-15T04:52:34;2.23;;;0.60;;
69414;SDS011;56608;43.530;-5.652;2022-11-15T04:53:36;2.35;;;0.60;;
69414;SDS011;56608;43.530;-5.652;2022-11-15T04:54:38;2.37;;;0.85;;
69414;SDS011;56608;43.530;-5.652;2022-11-15T04:55:39;7.65;;;0.65;;
69414;SDS011;56608;43.530;-5.652;2022-11-15T04:56:41;2.45;;;0.62;;
69414;SDS011;56608;43.530;-5.652;2022-11-15T04:57:42;0.60;;;0.50;;
69414;SDS011;56608;43.530;-5.652;2022-11-15T04:58:43;0.77;;;0.50;;
69414;SDS011;56608;43.530;-5.652;2022-11-15T04:59:45;1.87;;;0.57;;
69414;SDS011;56608;43.530;-5.652;2022-11-15T05:00:46;0.75;;;0.50;;
69414;SDS011;56608;43.530;-5.652;2022-11-15T05:01:50;1.10;;;0.40;;
69414;SDS011;56608;43.530;-5.652;2022-11-15T05:02:51;1.02;;;0.55;;
69414;SDS011;56608;43.530;-5.652;2022-11-15T05:04:11;1.10;;;0.60;;
69414;SDS011;56608;43.530;-5.652;2022-11-15T05:05:21;1.10;;;0.65;;
69414;SDS011;56608;43.530;-5.652;2022-11-15T05:06:23;2.62;;;0.88;;
69414;SDS011;56608;43.530;-5.652;2022-11-15T05:07:24;1.87;;;0.68;;
69414;SDS011;56608;43.530;-5.652;2022-11-15T05:08:25;4.30;;;1.08;;
69414;SDS011;56608;43.530;-5.652;2022-11-15T05:09:29;0.75;;;0.50;;
69414;SDS011;56608;43.530;-5.652;2022-11-15T05:10:30;1.95;;;0.50;;
69414;SDS011;56608;43.530;-5.652;2022-11-15T05:11:32;3.20;;;0.60;;
69414;SDS011;56608;43.530;-5.652;2022-11-15T05:12:33;1.35;;;0.65;;
69414;SDS011;56608;43.530;-5.652;2022-11-15T05:13:34;1.23;;;0.65;;
69414;SDS011;56608;43.530;-5.652;2022-11-15T05:14:36;2.22;;;0.90;;
69414;SDS011;56608;43.530;-5.652;2022-11-15T05:15:39;1.40;;;0.80;;
69414;SDS011;56608;43.530;-5.652;2022-11-15T05:16:41;1.55;;;0.75;;
69414;SDS011;56608;43.530;-5.652;2022-11-15T05:17:43;3.05;;;0.80;;
69414;SDS011;56608;43.530;-5.652;2022-11-15T05:18:44;3.62;;;0.60;;
69414;SDS011;56608;43.530;-5.652;2022-11-15T05:19:46;1.60;;;0.80;;
69414;SDS011;56608;43.530;-5.652;2022-11-15T05:20:46;2.10;;;0.75;;
69414;SDS011;56608;43.530;-5.652;2022-11-15T05:21:48;0.60;;;0.40;;
69414;SDS011;56608;43.530;-5.652;2022-11-15T05:22:49;1.10;;;0.40;;
69414;SDS011;56608;43.530;-5.652;2022-11-15T05:23:51;1.80;;;0.30;;
69414;SDS011;56608;43.530;-5.652;2022-11-15T05:24:52;1.30;;;0.30;;
69414;SDS011;56608;43.530;-5.652;2022-11-15T05:25:54;0.90;;;0.30;;
69414;SDS011;56608;43.530;-5.652;2022-11-15T05:27:00;1.15;;;0.40;;
69414;SDS011;56608;43.530;-5.652;2022-11-15T05:28:03;0.70;;;0.40;;
69414;SDS011;56608;43.530;-5.652;2022-11-15T05:29:05;0.57;;;0.30;;
69414;SDS011;56608;43.530;-5.652;2022-11-15T05:30:05;3.35;;;0.65;;
69414;SDS011;56608;43.530;-5.652;2022-11-15T05:31:11;1.25;;;0.30;;
69414;SDS011;56608;43.530;-5.652;2022-11-15T05:32:16;2.15;;;0.40;;
69414;SDS011;56608;43.530;-5.652;2022-11-15T05:33:18;1.35;;;0.30;;
69414;SDS011;56608;43.530;-5.652;2022-11-15T05:35:38;2.10;;;0.55;;
69414;SDS011;56608;43.530;-5.652;2022-11-15T05:36:42;1.35;;;0.40;;
69414;SDS011;56608;43.530;-5.652;2022-11-15T05:37:46;2.95;;;0.30;;
69414;SDS011;56608;43.530;-5.652;2022-11-15T05:38:50;2.85;;;0.45;;
69414;SDS011;56608;43.530;-5.652;2022-11-15T05:39:51;1.08;;;0.43;;
69414;SDS011;56608;43.530;-5.652;2022-11-15T05:40:53;1.65;;;0.50;;
69414;SDS011;56608;43.530;-5.652;2022-11-15T05:42:04;0.75;;;0.50;;
69414;SDS011;56608;43.530;-5.652;2022-11-15T05:43:10;1.90;;;0.50;;
69414;SDS011;56608;43.530;-5.652;2022-11-15T05:44:12;1.65;;;0.57;;
69414;SDS011;56608;43.530;-5.652;2022-11-15T05:45:15;0.60;;;0.50;;
69414;SDS011;56608;43.530;-5.652;2022-11-15T05:46:17;1.27;;;0.40;;
69414;SDS011;56608;43.530;-5.652;2022-11-15T05:48:22;2.90;;;0.50;;
69414;SDS011;56608;43.530;-5.652;2022-11-15T05:49:24;0.77;;;0.32;;
69414;SDS011;56608;43.530;-5.652;2022-11-15T05:50:31;0.40;;;0.30;;
69414;SDS011;56608;43.530;-5.652;2022-11-15T05:51:33;2.95;;;0.40;;
69414;SDS011;56608;43.530;-5.652;2022-11-15T05:52:35;0.70;;;0.40;;
69414;SDS011;56608;43.530;-5.652;2022-11-15T05:53:39;0.65;;;0.30;;
69414;SDS011;56608;43.530;-5.652;2022-11-15T05:55:42;0.40;;;0.30;;
69414;SDS011;56608;43.530;-5.652;2022-11-15T05:56:43;0.32;;;0.22;;
69414;SDS011;56608;43.530;-5.652;2022-11-15T05:57:45;1.27;;;0.28;;
69414;SDS011;56608;43.530;-5.652;2022-11-15T05:58:46;0.45;;;0.30;;
69414;SDS011;56608;43.530;-5.652;2022-11-15T05:59:47;0.77;;;0.57;;
69414;SDS011;56608;43.530;-5.652;2022-11-15T06:00:49;1.55;;;0.35;;
69414;SDS011;56608;43.530;-5.652;2022-11-15T06:01:50;0.98;;;0.40;;
69414;SDS011;56608;43.530;-5.652;2022-11-15T06:02:54;0.40;;;0.20;;
69414;SDS011;56608;43.530;-5.652;2022-11-15T06:03:55;0.93;;;0.40;;
69414;SDS011;56608;43.530;-5.652;2022-11-15T06:04:57;0.30;;;0.20;;
69414;SDS011;56608;43.530;-5.652;2022-11-15T06:05:58;1.55;;;0.45;;
69414;SDS011;56608;43.530;-5.652;2022-11-15T06:06:59;0.32;;;0.28;;
69414;SDS011;56608;43.530;-5.652;2022-11-15T06:08:03;3.00;;;0.50;;
69414;SDS011;56608;43.530;-5.652;2022-11-15T06:09:03;0.85;;;0.30;;
69414;SDS011;56608;43.530;-5.652;2022-11-15T06:10:05;2.65;;;0.50;;
69414;SDS011;56608;43.530;-5.652;2022-11-15T06:11:07;0.50;;;0.40;;
69414;SDS011;56608;43.530;-5.652;2022-11-15T06:12:09;0.65;;;0.57;;
69414;SDS011;56608;43.530;-5.652;2022-11-15T06:13:10;1.02;;;0.60;;
69414;SDS011;56608;43.530;-5.652;2022-11-15T06:14:12;2.17;;;0.70;;
69414;SDS011;56608;43.530;-5.652;2022-11-15T06:15:15;2.05;;;0.85;;
69414;SDS011;56608;43.530;-5.652;2022-11-15T06:16:17;2.65;;;0.90;;
69414;SDS011;56608;43.530;-5.652;2022-11-15T06:17:18;2.78;;;1.75;;
69414;SDS011;56608;43.530;-5.652;2022-11-15T06:18:19;2.80;;;1.80;;
69414;SDS011;56608;43.530;-5.652;2022-11-15T06:19:20;2.55;;;1.60;;
69414;SDS011;56608;43.530;-5.652;2022-11-15T06:20:24;2.60;;;1.40;;
69414;SDS011;56608;43.530;-5.652;2022-11-15T06:21:26;2.45;;;1.60;;
69414;SDS011;56608;43.530;-5.652;2022-11-15T06:22:31;4.55;;;1.90;;
69414;SDS011;56608;43.530;-5.652;2022-11-15T06:23:32;5.50;;;1.80;;
69414;SDS011;56608;43.530;-5.652;2022-11-15T06:24:34;8.65;;;2.70;;
69414;SDS011;56608;43.530;-5.652;2022-11-15T06:25:35;6.50;;;1.90;;
69414;SDS011;56608;43.530;-5.652;2022-11-15T06:26:38;5.05;;;2.10;;
69414;SDS011;56608;43.530;-5.652;2022-11-15T06:27:40;4.33;;;1.80;;
69414;SDS011;56608;43.530;-5.652;2022-11-15T06:28:40;6.55;;;2.10;;
69414;SDS011;56608;43.530;-5.652;2022-11-15T06:29:42;5.80;;;2.10;;
69414;SDS011;56608;43.530;-5.652;2022-11-15T06:30:43;8.85;;;2.50;;
69414;SDS011;56608;43.530;-5.652;2022-11-15T06:31:44;6.70;;;2.33;;
69414;SDS011;56608;43.530;-5.652;2022-11-15T06:32:46;6.00;;;2.35;;
69414;SDS011;56608;43.530;-5.652;2022-11-15T06:33:47;7.20;;;2.20;;
69414;SDS011;56608;43.530;-5.652;2022-11-15T06:34:50;8.35;;;2.40;;
69414;SDS011;56608;43.530;-5.652;2022-11-15T06:35:51;7.50;;;2.58;;
69414;SDS011;56608;43.530;-5.652;2022-11-15T06:36:57;7.60;;;2.05;;
69414;SDS011;56608;43.530;-5.652;2022-11-15T06:38:03;5.37;;;2.22;;
69414;SDS011;56608;43.530;-5.652;2022-11-15T06:39:05;6.35;;;1.70;;
69414;SDS011;56608;43.530;-5.652;2022-11-15T06:40:08;10.38;;;2.42;;
69414;SDS011;56608;43.530;-5.652;2022-11-15T06:41:10;5.20;;;2.10;;
69414;SDS011;56608;43.530;-5.652;2022-11-15T06:42:13;4.20;;;1.80;;
69414;SDS011;56608;43.530;-5.652;2022-11-15T06:43:16;5.60;;;1.80;;
69414;SDS011;56608;43.530;-5.652;2022-11-15T06:44:18;3.70;;;0.90;;
69414;SDS011;56608;43.530;-5.652;2022-11-15T06:45:19;3.15;;;0.80;;
69414;SDS011;56608;43.530;-5.652;2022-11-15T06:46:19;1.60;;;0.55;;
69414;SDS011;56608;43.530;-5.652;2022-11-15T06:47:21;0.60;;;0.40;;
69414;SDS011;56608;43.530;-5.652;2022-11-15T06:48:23;2.20;;;0.43;;
69414;SDS011;56608;43.530;-5.652;2022-11-15T06:49:24;3.45;;;1.15;;
69414;SDS011;56608;43.530;-5.652;2022-11-15T06:50:28;4.10;;;1.10;;
69414;SDS011;56608;43.530;-5.652;2022-11-15T06:51:29;4.85;;;1.75;;
69414;SDS011;56608;43.530;-5.652;2022-11-15T06:52:31;6.10;;;1.60;;
69414;SDS011;56608;43.530;-5.652;2022-11-15T06:53:33;6.75;;;1.90;;
69414;SDS011;56608;43.530;-5.652;2022-11-15T06:54:34;8.43;;;1.75;;
69414;SDS011;56608;43.530;-5.652;2022-11-15T06:55:36;5.95;;;2.10;;
69414;SDS011;56608;43.530;-5.652;2022-11-15T06:56:37;6.43;;;2.00;;
69414;SDS011;56608;43.530;-5.652;2022-11-15T06:57:45;4.70;;;1.50;;
69414;SDS011;56608;43.530;-5.652;2022-11-15T06:59:52;3.20;;;1.00;;
69414;SDS011;56608;43.530;-5.652;2022-11-15T07:00:53;3.13;;;1.10;;
69414;SDS011;56608;43.530;-5.652;2022-11-15T07:01:59;4.00;;;1.20;;
69414;SDS011;56608;43.530;-5.652;2022-11-15T07:03:00;3.70;;;1.10;;
69414;SDS011;56608;43.530;-5.652;2022-11-15T07:04:02;3.70;;;1.45;;
69414;SDS011;56608;43.530;-5.652;2022-11-15T07:05:03;7.75;;;1.85;;